createdAt,value
2022-10-23T00:00:27.455Z,10.33
2022-10-23T00:01:27.577Z,10.36
2022-10-23T00:02:27.466Z,10.37
2022-10-23T00:03:27.579Z,10.36
2022-10-23T00:04:27.704Z,10.34
2022-10-23T00:05:27.274Z,10.32
2022-10-23T00:06:27.454Z,10.26
2022-10-23T00:07:27.382Z,10.25
2022-10-23T00:08:27.241Z,10.25
2022-10-23T00:09:27.430Z,10.28
2022-10-23T00:10:27.189Z,10.26
2022-10-23T00:11:27.214Z,10.30
2022-10-23T00:12:27.213Z,10.26
2022-10-23T00:13:27.209Z,10.25
2022-10-23T00:14:27.139Z,10.22
2022-10-23T00:15:27.159Z,10.22
2022-10-23T00:16:27.166Z,10.17
2022-10-23T00:17:27.217Z,10.15
2022-10-23T00:18:27.211Z,10.09
2022-10-23T00:19:27.056Z,10.06
2022-10-23T00:20:27.090Z,10.01
2022-10-23T00:21:27.209Z,9.96
2022-10-23T00:22:27.226Z,9.93
2022-10-23T00:23:27.066Z,9.91
2022-10-23T00:24:26.983Z,9.91
2022-10-23T00:25:26.972Z,9.89
2022-10-23T00:26:27.012Z,9.93
2022-10-23T00:27:26.981Z,9.96
2022-10-23T00:28:26.983Z,10.00
2022-10-23T00:29:26.985Z,10.03
2022-10-23T00:30:27.044Z,10.07
2022-10-23T00:31:26.995Z,10.10
2022-10-23T00:32:26.928Z,10.14
2022-10-23T00:33:26.900Z,10.17
2022-10-23T00:34:26.893Z,10.19
2022-10-23T00:35:26.918Z,10.22
2022-10-23T00:36:26.891Z,10.24
2022-10-23T00:37:26.844Z,10.25
2022-10-23T00:38:26.800Z,10.24
2022-10-23T00:39:26.905Z,10.24
2022-10-23T00:40:26.844Z,10.22
2022-10-23T00:41:26.728Z,10.21
2022-10-23T00:42:26.795Z,10.17
2022-10-23T00:43:26.770Z,10.14
2022-10-23T00:44:26.775Z,10.10
2022-10-23T00:45:26.714Z,10.09
2022-10-23T00:46:26.722Z,10.07
2022-10-23T00:47:26.703Z,10.04
2022-10-23T00:48:26.746Z,9.99
2022-10-23T00:49:26.654Z,9.96
2022-10-23T00:50:26.707Z,9.94
2022-10-23T00:51:26.608Z,9.94
2022-10-23T00:52:26.568Z,9.99
2022-10-23T00:53:26.589Z,10.01
2022-10-23T00:54:26.548Z,10.01
2022-10-23T00:55:26.579Z,10.04
2022-10-23T00:56:26.547Z,10.06
2022-10-23T00:57:26.554Z,10.06
2022-10-23T00:58:26.507Z,10.07
2022-10-23T00:59:26.724Z,10.03
2022-10-23T01:00:26.914Z,10.03
2022-10-23T01:01:26.566Z,10.03
2022-10-23T01:02:26.937Z,10.01
2022-10-23T01:03:26.536Z,9.97
2022-10-23T01:04:26.455Z,9.93
2022-10-23T01:05:26.473Z,9.88
2022-10-23T01:06:26.444Z,9.85
2022-10-23T01:07:26.401Z,9.82
2022-10-23T01:08:27.021Z,9.79
2022-10-23T01:09:26.422Z,9.78
2022-10-23T01:10:27.271Z,9.76
2022-10-23T01:11:26.582Z,9.71
2022-10-23T01:12:26.382Z,9.70
2022-10-23T01:13:26.329Z,9.66
2022-10-23T01:14:26.313Z,9.60
2022-10-23T01:15:26.251Z,9.56
2022-10-23T01:16:26.289Z,9.52
2022-10-23T01:17:26.231Z,9.52
2022-10-23T01:18:26.345Z,9.56
2022-10-23T01:19:26.256Z,9.57
2022-10-23T01:20:27.189Z,9.60
2022-10-23T01:21:26.363Z,9.60
2022-10-23T01:22:26.799Z,9.61
2022-10-23T01:23:26.173Z,9.58
2022-10-23T01:24:26.134Z,9.56
2022-10-23T01:25:26.206Z,9.52
2022-10-23T01:26:26.097Z,9.53
2022-10-23T01:27:26.065Z,9.50
2022-10-23T01:28:26.075Z,9.50
2022-10-23T01:29:26.051Z,9.49
2022-10-23T01:30:26.036Z,9.48
2022-10-23T01:31:26.025Z,9.46
2022-10-23T01:32:26.077Z,9.43
2022-10-23T01:33:26.006Z,9.42
2022-10-23T01:34:25.972Z,9.40
2022-10-23T01:35:26.007Z,9.38
2022-10-23T01:36:25.959Z,9.34
2022-10-23T01:37:25.928Z,9.32
2022-10-23T01:38:25.959Z,9.32
2022-10-23T01:39:25.917Z,9.34
2022-10-23T01:40:25.911Z,9.38
2022-10-23T01:41:25.889Z,9.39
2022-10-23T01:42:25.918Z,9.43
2022-10-23T01:43:25.849Z,9.48
2022-10-23T01:44:25.850Z,9.53
2022-10-23T01:45:25.871Z,9.56
2022-10-23T01:46:25.859Z,9.57
2022-10-23T01:47:25.793Z,9.60
2022-10-23T01:48:25.779Z,9.57
2022-10-23T01:49:25.778Z,9.56
2022-10-23T01:50:26.639Z,9.58
2022-10-23T01:51:25.771Z,9.60
2022-10-23T01:52:25.871Z,9.67
2022-10-23T01:53:25.740Z,9.70
2022-10-23T01:54:26.139Z,9.73
2022-10-23T01:55:25.732Z,9.76
2022-10-23T01:56:25.700Z,9.78
2022-10-23T01:57:25.649Z,9.79
2022-10-23T01:58:25.666Z,9.82
2022-10-23T01:59:25.637Z,9.85
2022-10-23T02:00:25.603Z,9.88
2022-10-23T02:01:25.701Z,9.89
2022-10-23T02:02:25.650Z,9.91
2022-10-23T02:03:25.628Z,9.94
2022-10-23T02:04:25.565Z,9.94
2022-10-23T02:05:25.567Z,9.93
2022-10-23T02:06:25.519Z,9.91
2022-10-23T02:07:25.551Z,9.89
2022-10-23T02:08:25.513Z,9.88
2022-10-23T02:09:25.533Z,9.86
2022-10-23T02:10:25.493Z,9.86
2022-10-23T02:11:25.494Z,9.83
2022-10-23T02:12:25.448Z,9.82
2022-10-23T02:13:25.454Z,9.82
2022-10-23T02:14:25.456Z,9.81
2022-10-23T02:15:25.443Z,9.79
2022-10-23T02:16:25.411Z,9.76
2022-10-23T02:17:25.395Z,9.75
2022-10-23T02:18:25.386Z,9.73
2022-10-23T02:19:25.348Z,9.71
2022-10-23T02:20:25.386Z,9.67
2022-10-23T02:21:25.799Z,9.64
2022-10-23T02:22:25.307Z,9.60
2022-10-23T02:23:25.351Z,9.57
2022-10-23T02:24:25.266Z,9.56
2022-10-23T02:25:25.977Z,9.53
2022-10-23T02:26:25.257Z,9.53
2022-10-23T02:27:26.210Z,9.52
2022-10-23T02:28:25.768Z,9.52
2022-10-23T02:29:25.967Z,9.53
2022-10-23T02:30:26.169Z,9.52
2022-10-23T02:31:25.172Z,9.50
2022-10-23T02:32:25.931Z,9.49
2022-10-23T02:33:25.810Z,9.48
2022-10-23T02:34:25.680Z,9.46
2022-10-23T02:35:25.164Z,9.42
2022-10-23T02:36:25.818Z,9.40
2022-10-23T02:37:25.286Z,9.35
2022-10-23T02:38:25.099Z,9.34
2022-10-23T02:39:26.041Z,9.35
2022-10-23T02:40:25.990Z,9.34
2022-10-23T02:41:25.045Z,9.32
2022-10-23T02:42:25.173Z,9.31
2022-10-23T02:43:25.021Z,9.31
2022-10-23T02:44:25.802Z,9.30
2022-10-23T02:45:25.969Z,9.31
2022-10-23T02:46:24.997Z,9.32
2022-10-23T02:47:24.959Z,9.32
2022-10-23T02:48:25.935Z,9.35
2022-10-23T02:49:26.373Z,9.39
2022-10-23T02:50:24.987Z,9.40
2022-10-23T02:51:24.881Z,9.42
2022-10-23T02:52:25.805Z,9.43
2022-10-23T02:53:25.710Z,9.43
2022-10-23T02:54:24.875Z,9.45
2022-10-23T02:55:26.324Z,9.43
2022-10-23T02:56:24.851Z,9.45
2022-10-23T02:57:24.834Z,9.43
2022-10-23T02:58:24.895Z,9.48
2022-10-23T02:59:24.814Z,9.48
2022-10-23T03:00:24.835Z,9.50
2022-10-23T03:01:24.879Z,9.49
2022-10-23T03:02:25.899Z,9.50
2022-10-23T03:03:24.749Z,9.50
2022-10-23T03:04:24.742Z,9.52
2022-10-23T03:05:24.695Z,9.52
2022-10-23T03:06:24.727Z,9.50
2022-10-23T03:07:24.834Z,9.52
2022-10-23T03:08:24.679Z,9.56
2022-10-23T03:09:24.855Z,9.56
2022-10-23T03:10:25.615Z,9.56
2022-10-23T03:11:24.902Z,9.58
2022-10-23T03:12:24.890Z,9.58
2022-10-23T03:13:24.606Z,9.60
2022-10-23T03:14:24.586Z,9.61
2022-10-23T03:15:24.857Z,9.58
2022-10-23T03:16:25.561Z,9.57
2022-10-23T03:17:24.589Z,9.57
2022-10-23T03:18:24.558Z,9.53
2022-10-23T03:19:24.646Z,9.52
2022-10-23T03:20:24.709Z,9.50
2022-10-23T03:21:24.658Z,9.48
2022-10-23T03:22:24.774Z,9.49
2022-10-23T03:23:24.518Z,9.45
2022-10-23T03:24:24.471Z,9.46
2022-10-23T03:25:24.478Z,9.45
2022-10-23T03:26:24.432Z,9.42
2022-10-23T03:27:24.536Z,9.42
2022-10-23T03:28:24.465Z,9.38
2022-10-23T03:29:24.810Z,9.35
2022-10-23T03:30:24.378Z,9.32
2022-10-23T03:31:24.376Z,9.34
2022-10-23T03:32:24.813Z,9.31
2022-10-23T03:33:24.409Z,9.30
2022-10-23T03:34:24.310Z,9.30
2022-10-23T03:35:24.323Z,9.28
2022-10-23T03:36:24.320Z,9.28
2022-10-23T03:37:24.271Z,9.25
2022-10-23T03:38:24.281Z,9.24
2022-10-23T03:39:24.362Z,9.24
2022-10-23T03:40:24.272Z,9.23
2022-10-23T03:41:24.568Z,9.23
2022-10-23T03:42:24.314Z,9.21
2022-10-23T03:43:24.283Z,9.20
2022-10-23T03:44:24.368Z,9.20
2022-10-23T03:45:24.192Z,9.18
2022-10-23T03:46:24.182Z,9.20
2022-10-23T03:47:24.161Z,9.20
2022-10-23T03:48:24.176Z,9.18
2022-10-23T03:49:24.125Z,9.18
2022-10-23T03:50:24.506Z,9.16
2022-10-23T03:51:24.175Z,9.16
2022-10-23T03:53:24.096Z,9.13
2022-10-23T03:54:24.089Z,9.12
2022-10-23T03:55:24.047Z,9.10
2022-10-23T03:56:24.017Z,9.12
2022-10-23T03:57:24.004Z,9.10
2022-10-23T03:58:25.436Z,9.13
2022-10-23T03:59:24.009Z,9.13
2022-10-23T04:00:23.994Z,9.12
2022-10-23T04:01:24.056Z,9.12
2022-10-23T04:02:23.986Z,9.10
2022-10-23T04:03:23.915Z,9.10
2022-10-23T04:04:23.884Z,9.09
2022-10-23T04:05:23.896Z,9.09
2022-10-23T04:06:23.906Z,9.09
2022-10-23T04:07:23.849Z,9.09
2022-10-23T04:08:23.849Z,9.05
2022-10-23T04:09:23.837Z,9.04
2022-10-23T04:10:23.837Z,9.02
2022-10-23T04:11:23.792Z,8.99
2022-10-23T04:12:23.867Z,8.97
2022-10-23T04:13:23.761Z,8.96
2022-10-23T04:14:23.777Z,8.97
2022-10-23T04:15:23.724Z,9.02
2022-10-23T04:16:23.741Z,9.06
2022-10-23T04:17:23.755Z,9.06
2022-10-23T04:18:23.729Z,9.12
2022-10-23T04:19:23.688Z,9.10
2022-10-23T04:20:23.718Z,9.12
2022-10-23T04:21:23.685Z,9.05
2022-10-23T04:22:26.076Z,9.02
2022-10-23T04:23:23.676Z,9.01
2022-10-23T04:24:23.655Z,8.96
2022-10-23T04:25:23.643Z,8.91
2022-10-23T04:26:23.638Z,8.87
2022-10-23T04:27:23.583Z,8.86
2022-10-23T04:28:23.576Z,8.83
2022-10-23T04:29:23.631Z,8.78
2022-10-23T04:30:23.562Z,8.78
2022-10-23T04:31:23.548Z,8.78
2022-10-23T04:32:23.547Z,8.75
2022-10-23T04:33:23.496Z,8.71
2022-10-23T04:34:23.493Z,8.66
2022-10-23T04:35:23.483Z,8.62
2022-10-23T04:36:23.505Z,8.58
2022-10-23T04:37:24.994Z,8.54
2022-10-23T04:38:23.471Z,8.51
2022-10-23T04:39:23.447Z,8.48
2022-10-23T04:40:23.395Z,8.47
2022-10-23T04:41:23.442Z,8.47
2022-10-23T04:42:23.469Z,8.45
2022-10-23T04:43:23.376Z,8.51
2022-10-23T04:44:23.376Z,8.53
2022-10-23T04:45:23.355Z,8.51
2022-10-23T04:46:23.373Z,8.53
2022-10-23T04:47:23.293Z,8.51
2022-10-23T04:48:25.609Z,8.51
2022-10-23T04:49:24.594Z,8.50
2022-10-23T04:50:23.269Z,8.50
2022-10-23T04:51:23.669Z,8.50
2022-10-23T04:52:23.456Z,8.50
2022-10-23T04:53:23.307Z,8.50
2022-10-23T04:54:23.229Z,8.48
2022-10-23T04:55:23.216Z,8.45
2022-10-23T04:56:23.215Z,8.44
2022-10-23T04:57:23.169Z,8.44
2022-10-23T04:58:23.176Z,8.44
2022-10-23T04:59:23.157Z,8.45
2022-10-23T05:00:23.147Z,8.45
2022-10-23T05:01:23.185Z,8.45
2022-10-23T05:02:23.108Z,8.44
2022-10-23T05:03:23.118Z,8.45
2022-10-23T05:04:23.085Z,8.45
2022-10-23T05:05:23.089Z,8.45
2022-10-23T05:06:23.127Z,8.44
2022-10-23T05:07:23.160Z,8.44
2022-10-23T05:08:23.033Z,8.42
2022-10-23T05:09:23.086Z,8.44
2022-10-23T05:10:23.821Z,8.44
2022-10-23T05:11:23.031Z,8.44
2022-10-23T05:12:23.071Z,8.42
2022-10-23T05:13:22.988Z,8.42
2022-10-23T05:14:23.088Z,8.40
2022-10-23T05:15:22.910Z,8.37
2022-10-23T05:16:22.941Z,8.36
2022-10-23T05:17:22.889Z,8.35
2022-10-23T05:18:23.219Z,8.35
2022-10-23T05:19:24.445Z,8.33
2022-10-23T05:20:23.659Z,8.35
2022-10-23T05:21:23.483Z,8.35
2022-10-23T05:22:30.209Z,8.36
2022-10-23T05:23:24.247Z,8.37
2022-10-23T05:24:28.914Z,8.37
2022-10-23T05:25:23.411Z,8.37
2022-10-23T05:26:23.228Z,8.37
2022-10-23T05:27:24.088Z,8.37
2022-10-23T05:28:23.234Z,8.37
2022-10-23T05:29:23.615Z,8.36
2022-10-23T05:30:23.335Z,8.36
2022-10-23T05:31:22.922Z,8.36
2022-10-23T05:32:22.830Z,8.36
2022-10-23T05:33:22.862Z,8.36
2022-10-23T05:34:22.696Z,8.33
2022-10-23T05:35:24.703Z,8.32
2022-10-23T05:36:35.552Z,8.32
2022-10-23T05:37:24.585Z,8.30
2022-10-23T05:38:24.775Z,8.30
2022-10-23T05:39:24.415Z,8.29
2022-10-23T05:40:25.344Z,8.28
2022-10-23T05:41:24.840Z,8.30
2022-10-23T05:42:27.060Z,8.30
2022-10-23T07:52:43.760Z,10.63
2022-10-23T07:53:43.499Z,10.68
2022-10-23T07:54:44.171Z,10.74
2022-10-23T07:55:43.375Z,10.80
2022-10-23T07:56:43.371Z,10.88
2022-10-23T07:57:44.175Z,10.89
2022-10-23T07:58:44.347Z,10.91
2022-10-23T07:59:44.212Z,10.95
2022-10-23T08:00:44.743Z,10.95
2022-10-23T08:01:43.396Z,10.95
2022-10-23T08:02:43.510Z,10.99
2022-10-23T08:03:43.273Z,11.02
2022-10-23T08:04:44.041Z,11.03
2022-10-23T08:05:44.191Z,11.06
2022-10-23T08:06:44.065Z,11.10
2022-10-23T08:07:43.216Z,11.16
2022-10-23T08:09:44.050Z,11.24
2022-10-23T08:10:43.116Z,11.27
2022-10-23T08:11:43.653Z,11.32
2022-10-23T08:12:43.435Z,11.35
2022-10-23T08:13:44.168Z,11.38
2022-10-23T08:14:44.045Z,11.43
2022-10-23T08:15:43.066Z,11.47
2022-10-23T08:16:43.854Z,11.50
2022-10-23T08:17:43.250Z,11.54
2022-10-23T08:18:43.914Z,11.56
2022-10-23T08:19:43.014Z,11.59
2022-10-23T08:20:43.015Z,11.62
2022-10-23T08:21:43.886Z,11.64
2022-10-23T08:22:42.987Z,11.68
2022-10-23T08:23:42.957Z,11.70
2022-10-23T08:24:42.967Z,11.74
2022-10-23T08:25:42.914Z,11.75
2022-10-23T08:26:42.986Z,11.80
2022-10-23T08:27:43.087Z,11.85
2022-10-23T08:28:43.037Z,11.89
2022-10-23T08:29:43.627Z,11.94
2022-10-23T08:30:43.788Z,12.04
2022-10-23T08:31:42.888Z,12.06
2022-10-23T08:32:43.600Z,12.12
2022-10-23T08:33:42.849Z,12.19
2022-10-23T08:34:42.901Z,12.24
2022-10-23T08:35:43.096Z,12.29
2022-10-23T08:36:43.039Z,12.37
2022-10-23T08:37:43.323Z,12.42
2022-10-23T08:38:42.892Z,12.51
2022-10-23T08:39:42.741Z,12.52
2022-10-23T08:40:42.714Z,12.59
2022-10-23T08:41:42.942Z,12.67
2022-10-23T08:42:44.416Z,12.75
2022-10-23T08:43:42.833Z,12.82
2022-10-23T08:44:42.663Z,12.89
2022-10-23T08:45:43.630Z,12.96
2022-10-23T08:46:42.744Z,12.99
2022-10-23T08:47:42.610Z,12.99
2022-10-23T08:48:42.601Z,13.02
2022-10-23T08:49:43.035Z,13.06
2022-10-23T08:50:42.997Z,13.11
2022-10-23T08:51:43.564Z,13.14
2022-10-23T08:52:43.234Z,13.18
2022-10-23T08:53:42.581Z,13.18
2022-10-23T08:54:42.632Z,13.21
2022-10-23T08:55:42.495Z,13.22
2022-10-23T08:56:42.657Z,13.24
2022-10-23T08:57:43.780Z,13.25
2022-10-23T08:58:42.507Z,13.29
2022-10-23T08:59:42.556Z,13.33
2022-10-23T09:00:42.506Z,13.37
2022-10-23T09:01:43.500Z,13.43
2022-10-23T09:02:42.751Z,13.44
2022-10-23T09:03:42.368Z,13.43
2022-10-23T09:04:42.551Z,13.44
2022-10-23T09:05:42.347Z,13.46
2022-10-23T09:06:42.428Z,13.51
2022-10-23T09:07:42.766Z,13.55
2022-10-23T09:08:43.026Z,13.61
2022-10-23T09:09:42.437Z,13.62
2022-10-23T09:10:44.483Z,13.63
2022-10-23T09:11:42.321Z,13.69
2022-10-23T09:12:42.261Z,13.74
2022-10-23T09:13:42.250Z,13.80
2022-10-23T09:14:42.239Z,13.89
2022-10-23T09:15:42.238Z,13.95
2022-10-23T09:16:42.245Z,13.98
2022-10-23T09:17:42.469Z,14.09
2022-10-23T09:18:42.208Z,14.10
2022-10-23T09:19:42.156Z,14.12
2022-10-23T09:20:42.184Z,14.12
2022-10-23T09:21:42.160Z,14.10
2022-10-23T09:22:42.151Z,14.10
2022-10-23T09:23:42.124Z,14.14
2022-10-23T09:24:43.556Z,14.19
2022-10-23T09:25:42.061Z,14.20
2022-10-23T09:26:42.068Z,14.25
2022-10-23T09:27:42.244Z,14.27
2022-10-23T09:28:42.102Z,14.32
2022-10-23T09:29:42.026Z,14.31
2022-10-23T09:30:42.045Z,14.32
2022-10-23T09:31:42.054Z,14.35
2022-10-23T09:32:41.983Z,14.37
2022-10-23T09:33:41.989Z,14.37
2022-10-23T09:34:41.976Z,14.39
2022-10-23T09:35:41.954Z,14.37
2022-10-23T09:36:41.956Z,14.35
2022-10-23T09:37:42.251Z,14.35
2022-10-23T09:38:41.951Z,14.34
2022-10-23T09:39:41.934Z,14.35
2022-10-23T09:40:41.899Z,14.43
2022-10-23T09:41:41.897Z,14.44
2022-10-23T09:42:41.932Z,14.52
2022-10-23T09:43:41.882Z,14.57
2022-10-23T09:44:41.847Z,14.65
2022-10-23T09:45:41.837Z,14.69
2022-10-23T09:46:41.828Z,14.75
2022-10-23T09:47:41.972Z,14.83
2022-10-23T09:48:41.784Z,14.87
2022-10-23T09:49:41.755Z,14.90
2022-10-23T09:50:41.777Z,14.94
2022-10-23T09:51:41.749Z,14.88
2022-10-23T09:52:41.731Z,14.91
2022-10-23T09:53:41.710Z,14.93
2022-10-23T09:54:41.691Z,14.95
2022-10-23T09:55:41.678Z,14.94
2022-10-23T09:56:41.718Z,14.93
2022-10-23T09:57:42.110Z,15.02
2022-10-23T09:58:41.632Z,15.05
2022-10-23T09:59:41.622Z,15.12
2022-10-23T10:00:41.660Z,15.17
2022-10-23T10:01:41.764Z,15.24
2022-10-23T10:02:41.653Z,15.30
2022-10-23T10:03:41.543Z,15.28
2022-10-23T10:04:41.535Z,15.36
2022-10-23T10:05:41.533Z,15.36
2022-10-23T10:07:41.580Z,15.36
2022-10-23T10:08:41.486Z,15.42
2022-10-23T10:09:41.498Z,15.43
2022-10-23T10:10:41.476Z,15.46
2022-10-23T10:11:41.457Z,15.46
2022-10-23T10:12:41.417Z,15.51
2022-10-23T10:13:41.436Z,15.56
2022-10-23T10:14:42.149Z,15.64
2022-10-23T10:15:41.992Z,15.64
2022-10-23T10:16:41.381Z,15.66
2022-10-23T10:17:41.641Z,15.75
2022-10-23T10:18:41.359Z,15.72
2022-10-23T10:19:41.364Z,15.66
2022-10-23T10:20:41.353Z,15.56
2022-10-23T10:21:41.311Z,15.54
2022-10-23T10:22:41.291Z,15.60
2022-10-23T10:23:41.271Z,15.64
2022-10-23T10:24:41.271Z,15.66
2022-10-23T10:25:41.302Z,15.67
2022-10-23T10:26:41.252Z,15.64
2022-10-23T10:27:41.571Z,15.68
2022-10-23T10:28:41.211Z,15.74
2022-10-23T10:29:41.193Z,15.76
2022-10-23T10:30:41.177Z,15.81
2022-10-23T10:31:41.175Z,15.78
2022-10-23T10:32:41.145Z,15.76
2022-10-23T10:33:41.151Z,15.81
2022-10-23T10:34:41.095Z,15.79
2022-10-23T10:35:41.093Z,15.81
2022-10-23T10:36:41.087Z,15.85
2022-10-23T10:37:42.262Z,15.92
2022-10-23T10:38:41.036Z,15.97
2022-10-23T10:39:41.047Z,16.03
2022-10-23T10:40:41.068Z,16.12
2022-10-23T10:41:40.997Z,16.09
2022-10-23T10:42:41.930Z,16.12
2022-10-23T10:43:40.998Z,16.11
2022-10-23T10:44:40.959Z,16.18
2022-10-23T10:45:40.966Z,16.30
2022-10-23T10:46:40.943Z,16.41
2022-10-23T10:47:41.842Z,16.50
2022-10-23T10:48:40.998Z,16.56
2022-10-23T10:49:40.987Z,16.58
2022-10-23T10:50:40.877Z,16.55
2022-10-23T10:51:40.862Z,16.45
2022-10-23T10:52:43.227Z,16.42
2022-10-23T10:53:41.901Z,16.41
2022-10-23T10:54:40.837Z,16.40
2022-10-23T10:55:40.859Z,16.35
2022-10-23T10:56:40.817Z,16.33
2022-10-23T10:57:41.313Z,16.38
2022-10-23T10:58:41.621Z,16.38
2022-10-23T10:59:41.523Z,16.38
2022-10-23T11:00:41.752Z,16.41
2022-10-23T11:01:41.677Z,16.38
2022-10-23T11:02:41.486Z,16.41
2022-10-23T11:03:40.766Z,16.42
2022-10-23T11:04:41.562Z,16.50
2022-10-23T11:05:40.809Z,16.52
2022-10-23T11:06:41.617Z,16.56
2022-10-23T11:07:41.777Z,16.58
2022-10-23T11:08:56.227Z,16.58
2022-10-23T11:09:43.116Z,16.58
2022-10-23T11:10:41.518Z,16.56
2022-10-23T11:11:41.442Z,16.58
2022-10-23T11:12:41.584Z,16.62
2022-10-23T11:13:40.621Z,16.65
2022-10-23T11:14:40.587Z,16.75
2022-10-23T11:15:40.653Z,16.86
2022-10-23T11:16:40.595Z,16.93
2022-10-23T11:17:41.772Z,16.96
2022-10-23T11:18:41.520Z,17.00
2022-10-23T11:19:40.517Z,17.10
2022-10-23T11:20:40.509Z,17.15
2022-10-23T11:21:40.462Z,17.14
2022-10-23T11:22:40.651Z,17.20
2022-10-23T11:23:40.437Z,17.22
2022-10-23T11:24:42.188Z,17.26
2022-10-23T11:25:40.708Z,17.32
2022-10-23T11:26:40.782Z,17.32
2022-10-23T11:27:41.070Z,17.29
2022-10-23T11:28:40.838Z,17.26
2022-10-23T11:29:40.912Z,17.28
2022-10-23T11:30:40.306Z,17.32
2022-10-23T11:31:41.026Z,17.29
2022-10-23T11:32:40.293Z,17.32
2022-10-23T11:33:42.686Z,17.32
2022-10-23T11:34:40.313Z,17.33
2022-10-23T11:35:41.141Z,17.38
2022-10-23T11:36:40.240Z,17.36
2022-10-23T11:37:40.343Z,17.38
2022-10-23T11:38:40.194Z,17.33
2022-10-23T11:39:40.268Z,17.35
2022-10-23T11:40:40.208Z,17.35
2022-10-23T11:41:40.221Z,17.36
2022-10-23T11:42:40.277Z,17.40
2022-10-23T11:43:41.167Z,17.43
2022-10-23T11:44:40.210Z,17.48
2022-10-23T11:45:40.175Z,17.53
2022-10-23T11:46:40.198Z,17.57
2022-10-23T11:47:40.726Z,17.64
2022-10-23T11:48:40.168Z,17.69
2022-10-23T11:49:40.154Z,17.71
2022-10-23T11:50:40.977Z,17.81
2022-10-23T11:51:40.884Z,17.76
2022-10-23T11:52:45.752Z,17.76
2022-10-23T11:53:41.006Z,17.84
2022-10-23T11:54:40.848Z,17.76
2022-10-23T11:55:39.987Z,17.79
2022-10-23T11:56:40.911Z,17.82
2022-10-23T11:57:39.951Z,17.84
2022-10-23T11:58:40.720Z,17.95
2022-10-23T11:59:39.943Z,18.09
2022-10-23T12:00:39.915Z,18.18
2022-10-23T12:01:39.976Z,18.22
2022-10-23T12:02:40.186Z,18.28
2022-10-23T12:03:39.861Z,18.34
2022-10-23T12:04:39.841Z,18.43
2022-10-23T12:05:39.862Z,18.55
2022-10-23T12:06:40.718Z,18.65
2022-10-23T12:07:39.813Z,18.73
2022-10-23T12:08:40.784Z,18.80
2022-10-23T12:09:39.998Z,18.87
2022-10-23T12:10:39.803Z,18.92
2022-10-23T12:11:39.968Z,18.91
2022-10-23T12:12:40.196Z,18.90
2022-10-23T12:13:40.275Z,18.90
2022-10-23T12:14:40.237Z,18.91
2022-10-23T12:15:40.244Z,18.98
2022-10-23T12:16:40.195Z,19.11
2022-10-23T12:17:39.657Z,19.28
2022-10-23T12:18:39.649Z,19.36
2022-10-23T12:19:40.173Z,19.35
2022-10-23T12:20:40.140Z,19.35
2022-10-23T12:21:40.102Z,19.43
2022-10-23T12:22:39.575Z,19.46
2022-10-23T12:23:42.120Z,19.46
2022-10-23T12:24:39.545Z,19.50
2022-10-23T12:25:39.564Z,19.36
2022-10-23T12:26:39.543Z,19.02
2022-10-23T12:27:39.714Z,18.79
2022-10-23T12:28:39.534Z,18.64
2022-10-23T12:29:39.881Z,18.47
2022-10-23T12:30:39.519Z,18.31
2022-10-23T12:31:42.096Z,18.17
2022-10-23T12:32:39.443Z,18.17
2022-10-23T12:33:40.145Z,18.19
2022-10-23T12:34:39.591Z,18.28
2022-10-23T12:35:40.112Z,18.36
2022-10-23T12:36:39.467Z,18.40
2022-10-23T12:37:39.376Z,18.42
2022-10-23T12:38:39.364Z,18.46
2022-10-23T12:39:39.418Z,18.54
2022-10-23T12:40:40.133Z,18.59
2022-10-23T12:41:40.201Z,18.59
2022-10-23T12:42:39.306Z,18.61
2022-10-23T12:43:39.409Z,18.58
2022-10-23T12:44:39.350Z,18.57
2022-10-23T12:45:40.797Z,18.54
2022-10-23T12:46:39.249Z,18.42
2022-10-23T12:47:39.268Z,18.27
2022-10-23T12:48:39.289Z,18.25
2022-10-23T12:49:39.285Z,18.19
2022-10-23T12:50:39.234Z,18.21
2022-10-23T12:51:39.203Z,18.22
2022-10-23T12:52:39.171Z,18.21
2022-10-23T12:53:39.366Z,18.21
2022-10-23T12:54:39.145Z,18.21
2022-10-23T12:55:39.215Z,18.17
2022-10-23T12:56:39.165Z,18.18
2022-10-23T12:57:39.154Z,18.15
2022-10-23T12:58:39.158Z,18.13
2022-10-23T12:59:39.088Z,18.17
2022-10-23T13:00:39.153Z,18.17
2022-10-23T13:01:40.527Z,18.17
2022-10-23T13:02:39.171Z,18.17
2022-10-23T13:03:39.014Z,18.19
2022-10-23T13:04:39.047Z,18.19
2022-10-23T13:05:39.131Z,18.15
2022-10-23T13:06:38.987Z,18.07
2022-10-23T13:07:39.112Z,18.04
2022-10-23T13:08:38.970Z,18.00
2022-10-23T13:09:38.967Z,17.88
2022-10-23T13:10:39.037Z,17.79
2022-10-23T13:11:38.938Z,17.70
2022-10-23T13:12:38.992Z,17.64
2022-10-23T13:13:38.946Z,17.57
2022-10-23T13:14:42.044Z,17.53
2022-10-23T13:15:40.748Z,17.46
2022-10-23T13:16:38.890Z,17.41
2022-10-23T13:17:38.862Z,17.36
2022-10-23T13:18:38.840Z,17.33
2022-10-23T13:19:38.827Z,17.33
2022-10-23T13:20:38.826Z,17.30
2022-10-23T13:21:38.807Z,17.30
2022-10-23T13:22:38.773Z,17.28
2022-10-23T13:23:38.767Z,17.25
2022-10-23T13:24:38.757Z,17.20
2022-10-23T13:25:39.080Z,17.15
2022-10-23T13:26:39.029Z,17.14
2022-10-23T13:27:39.610Z,17.13
2022-10-23T13:28:38.677Z,17.08
2022-10-23T13:29:38.695Z,17.08
2022-10-23T13:30:38.849Z,17.06
2022-10-23T13:31:38.670Z,17.06
2022-10-23T13:32:38.687Z,17.03
2022-10-23T13:33:38.629Z,17.03
2022-10-23T13:34:38.638Z,17.00
2022-10-23T13:35:38.675Z,16.99
2022-10-23T13:36:38.590Z,16.98
2022-10-23T13:37:38.645Z,16.98
2022-10-23T13:38:38.570Z,16.98
2022-10-23T13:39:38.520Z,16.99
2022-10-23T13:40:38.553Z,16.99
2022-10-23T13:41:38.514Z,16.99
2022-10-23T13:42:38.482Z,17.03
2022-10-23T13:43:38.461Z,17.04
2022-10-23T13:44:38.452Z,17.04
2022-10-23T13:45:38.562Z,17.04
2022-10-23T13:46:38.495Z,17.06
2022-10-23T13:47:38.462Z,17.07
2022-10-23T13:48:38.415Z,17.06
2022-10-23T13:49:38.434Z,17.07
2022-10-23T13:50:38.419Z,17.04
2022-10-23T13:51:41.750Z,17.06
2022-10-23T13:52:38.426Z,17.06
2022-10-23T13:53:38.347Z,17.03
2022-10-23T13:54:38.372Z,17.00
2022-10-23T13:55:38.413Z,16.99
2022-10-23T13:56:38.966Z,16.95
2022-10-23T13:57:39.078Z,16.95
2022-10-23T13:58:38.262Z,16.95
2022-10-23T13:59:38.297Z,16.93
2022-10-23T14:00:38.275Z,16.92
2022-10-23T14:01:38.485Z,16.89
2022-10-23T14:02:38.421Z,16.88
2022-10-23T14:03:38.237Z,16.86
2022-10-23T14:04:38.258Z,16.85
2022-10-23T14:05:38.161Z,16.78
2022-10-23T14:06:38.170Z,16.78
2022-10-23T14:07:38.213Z,16.77
2022-10-23T14:08:38.172Z,16.74
2022-10-23T14:09:38.151Z,16.74
2022-10-23T14:10:38.135Z,16.77
2022-10-23T14:11:38.189Z,16.74
2022-10-23T14:12:38.260Z,16.71
2022-10-23T14:13:38.064Z,16.67
2022-10-23T14:14:38.014Z,16.65
2022-10-23T14:15:38.055Z,16.60
2022-10-23T14:16:38.023Z,16.59
2022-10-23T14:17:37.996Z,16.55
2022-10-23T14:18:38.025Z,16.52
2022-10-23T14:19:38.034Z,16.48
2022-10-23T14:20:38.007Z,16.45
2022-10-23T14:21:37.993Z,16.44
2022-10-23T14:22:37.944Z,16.40
2022-10-23T14:23:37.939Z,16.37
2022-10-23T14:24:37.977Z,16.34
2022-10-23T14:25:37.924Z,16.30
2022-10-23T14:26:37.861Z,16.30
2022-10-23T14:27:37.985Z,16.26
2022-10-23T14:28:38.695Z,16.26
2022-10-23T14:29:37.859Z,16.22
2022-10-23T14:30:37.870Z,16.18
2022-10-23T14:31:38.835Z,16.16
2022-10-23T14:32:38.075Z,16.14
2022-10-23T14:33:37.789Z,16.12
2022-10-23T14:34:37.781Z,16.11
2022-10-23T14:35:37.971Z,16.07
2022-10-23T14:36:49.474Z,16.04
2022-10-23T14:37:38.726Z,16.03
2022-10-23T14:38:37.723Z,16.03
2022-10-23T14:39:37.722Z,16.01
2022-10-23T14:40:37.986Z,15.99
2022-10-23T14:41:37.895Z,16.01
2022-10-23T14:42:37.704Z,16.00
2022-10-23T14:43:37.883Z,15.99
2022-10-23T14:45:38.500Z,15.96
2022-10-23T14:46:37.952Z,15.96
2022-10-23T14:47:37.693Z,15.94
2022-10-23T14:48:38.525Z,15.94
2022-10-23T14:49:37.548Z,15.89
2022-10-23T14:50:38.365Z,15.89
2022-10-23T14:51:38.551Z,15.88
2022-10-23T14:52:37.694Z,15.88
2022-10-23T14:53:37.634Z,15.85
2022-10-23T14:54:37.497Z,15.85
2022-10-23T14:55:37.539Z,15.82
2022-10-23T14:56:37.543Z,15.84
2022-10-23T14:57:37.459Z,15.82
2022-10-23T14:58:38.347Z,15.81
2022-10-23T14:59:38.231Z,15.81
2022-10-23T15:00:37.510Z,15.79
2022-10-23T15:01:41.227Z,15.79
2022-10-23T15:02:38.377Z,15.81
2022-10-23T15:03:37.440Z,15.78
2022-10-23T15:04:37.509Z,15.76
2022-10-23T15:05:37.347Z,15.75
2022-10-23T15:06:37.309Z,15.74
2022-10-23T15:07:37.654Z,15.72
2022-10-23T15:08:37.370Z,15.70
2022-10-23T15:09:37.312Z,15.68
2022-10-23T15:10:37.276Z,15.68
2022-10-23T15:11:37.442Z,15.68
2022-10-23T15:12:37.273Z,15.67
2022-10-23T15:13:37.233Z,15.66
2022-10-23T15:14:37.189Z,15.66
2022-10-23T15:15:37.932Z,15.64